createdAt,value
2019-02-25T00:02:28.957Z,13.63
2019-02-25T00:05:14.441Z,14.70
2019-02-25T00:08:00.556Z,13.83
2019-02-25T00:10:46.612Z,14.17
2019-02-25T00:13:32.868Z,13.67
2019-02-25T00:16:19.575Z,13.10
2019-02-25T00:19:05.367Z,13.43
2019-02-25T00:21:51.101Z,14.07
2019-02-25T00:24:37.696Z,14.10
2019-02-25T00:27:23.704Z,14.03
2019-02-25T00:30:09.744Z,13.90
2019-02-25T00:32:55.800Z,13.17
2019-02-25T00:35:42.888Z,13.37
2019-02-25T00:38:29.015Z,13.97
2019-02-25T00:41:15.113Z,13.77
2019-02-25T00:44:01.197Z,14.60
2019-02-25T00:46:47.763Z,12.93
2019-02-25T00:49:34.213Z,14.47
2019-02-25T00:52:19.951Z,13.30
2019-02-25T00:55:06.352Z,13.80
2019-02-25T00:57:52.234Z,12.97
2019-02-25T01:00:38.321Z,13.37
2019-02-25T01:03:24.631Z,14.33
2019-02-25T01:06:10.664Z,14.10
2019-02-25T01:08:56.686Z,13.47
2019-02-25T01:11:42.572Z,13.97
2019-02-25T01:14:28.974Z,13.00
2019-02-25T01:17:14.836Z,12.10
2019-02-25T01:20:00.915Z,12.90
2019-02-25T01:22:47.092Z,11.33
2019-02-25T01:25:33.093Z,12.03
2019-02-25T01:28:18.857Z,12.57
2019-02-25T01:31:05.393Z,13.87
2019-02-25T01:33:51.473Z,13.00
2019-02-25T01:36:37.659Z,14.00
2019-02-25T01:39:24.104Z,13.03
2019-02-25T01:42:10.209Z,12.90
2019-02-25T01:44:55.973Z,14.27
2019-02-25T01:47:42.432Z,14.23
2019-02-25T01:50:28.439Z,15.70
2019-02-25T01:53:14.250Z,11.90
2019-02-25T01:56:00.751Z,12.27
2019-02-25T01:58:46.609Z,13.20
2019-02-25T02:01:32.602Z,13.10
2019-02-25T02:04:18.989Z,14.27
2019-02-25T02:07:04.837Z,12.80
2019-02-25T02:09:51.136Z,12.80
2019-02-25T02:12:37.641Z,11.93
2019-02-25T02:15:23.628Z,13.20
2019-02-25T02:18:09.702Z,13.40
2019-02-25T02:20:55.876Z,13.07
2019-02-25T02:23:41.971Z,11.70
2019-02-25T02:26:28.161Z,12.37
2019-02-25T02:29:14.358Z,13.53
2019-02-25T02:32:00.339Z,12.63
2019-02-25T02:34:46.252Z,12.27
2019-02-25T02:37:32.148Z,12.03
2019-02-25T02:40:18.493Z,13.00
2019-02-25T02:43:05.014Z,12.23
2019-02-25T02:46:02.139Z,11.70
2019-02-25T02:48:51.691Z,11.63
2019-02-25T02:51:37.663Z,12.03
2019-02-25T02:54:23.424Z,11.97
2019-02-25T02:57:09.389Z,12.00
2019-02-25T02:59:55.929Z,12.10
2019-02-25T03:02:41.945Z,12.30
2019-02-25T03:05:27.757Z,12.10
2019-02-25T03:08:13.742Z,12.80
2019-02-25T03:10:59.918Z,12.20
2019-02-25T03:13:45.686Z,13.67
2019-02-25T03:16:32.217Z,11.57
2019-02-25T03:19:18.266Z,12.73
2019-02-25T03:22:04.219Z,12.07
2019-02-25T03:24:50.548Z,11.80
2019-02-25T03:27:37.193Z,11.03
2019-02-25T03:30:22.813Z,12.03
2019-02-25T03:33:09.574Z,12.07
2019-02-25T03:35:55.522Z,12.73
2019-02-25T03:38:41.461Z,12.17
2019-02-25T03:41:28.120Z,12.17
2019-02-25T03:44:14.180Z,12.33
2019-02-25T03:47:00.139Z,12.37
2019-02-25T03:49:46.454Z,11.30
2019-02-25T03:52:32.455Z,13.07
2019-02-25T03:55:18.333Z,12.80
2019-02-25T03:58:04.508Z,13.27
2019-02-25T04:00:50.632Z,12.33
2019-02-25T04:03:36.455Z,12.47
2019-02-25T04:06:22.934Z,12.30
2019-02-25T04:09:08.973Z,12.70
2019-02-25T04:11:54.925Z,12.50
2019-02-25T04:14:41.129Z,12.50
2019-02-25T04:17:26.975Z,11.53
2019-02-25T04:20:13.558Z,12.20
2019-02-25T04:22:59.788Z,11.53
2019-02-25T04:25:45.741Z,12.00
2019-02-25T04:28:31.702Z,11.43
2019-02-25T04:31:18.062Z,13.10
2019-02-25T04:34:03.990Z,12.87
2019-02-25T04:36:50.097Z,11.57
2019-02-25T04:39:36.394Z,11.70
2019-02-25T04:42:22.596Z,12.27
2019-02-25T04:45:11.350Z,12.20
2019-02-25T04:47:57.706Z,11.27
2019-02-25T04:50:43.354Z,11.63
2019-02-25T04:53:29.143Z,12.03
2019-02-25T04:56:15.600Z,10.73
2019-02-25T04:59:02.017Z,11.20
2019-02-25T05:01:47.804Z,11.53
2019-02-25T05:04:34.170Z,12.00
2019-02-25T05:07:20.022Z,10.33
2019-02-25T05:10:06.463Z,10.80
2019-02-25T05:13:00.338Z,11.77
2019-02-25T05:15:46.275Z,11.03
2019-02-25T05:18:32.325Z,10.03
2019-02-25T05:21:18.627Z,10.70
2019-02-25T05:24:04.846Z,10.00
2019-02-25T05:26:50.466Z,10.83
2019-02-25T05:29:36.701Z,11.27
2019-02-25T05:32:22.833Z,10.33
2019-02-25T05:35:09.178Z,10.77
2019-02-25T05:37:55.000Z,11.00
2019-02-25T05:40:41.633Z,11.70
2019-02-25T05:43:27.452Z,10.57
2019-02-25T05:46:13.869Z,10.20
2019-02-25T05:48:59.647Z,11.43
2019-02-25T05:51:45.519Z,10.73
2019-02-25T05:54:31.994Z,11.43
2019-02-25T05:57:17.987Z,11.33
2019-02-25T06:00:04.479Z,10.87
2019-02-25T06:02:51.129Z,11.97
2019-02-25T06:05:36.877Z,11.03
2019-02-25T06:08:22.772Z,12.40
2019-02-25T06:11:09.238Z,10.97
2019-02-25T06:13:55.374Z,10.33
2019-02-25T06:16:40.970Z,12.03
2019-02-25T06:19:28.924Z,10.63
2019-02-25T06:22:16.334Z,10.83
2019-02-25T06:25:02.122Z,11.70
2019-02-25T06:27:48.334Z,10.70
2019-02-25T06:30:34.782Z,10.93
2019-02-25T06:33:20.866Z,11.40
2019-02-25T06:36:07.143Z,11.50
2019-02-25T06:38:52.807Z,10.70
2019-02-25T06:41:38.731Z,11.73
2019-02-25T06:44:25.111Z,11.77
2019-02-25T06:47:11.015Z,12.50
2019-02-25T06:49:57.214Z,12.83
2019-02-25T06:52:43.563Z,12.23
2019-02-25T06:55:29.485Z,12.50
2019-02-25T06:58:15.498Z,11.57
2019-02-25T07:01:01.890Z,11.37
2019-02-25T07:04:07.215Z,11.50
2019-02-25T07:07:03.531Z,12.20
2019-02-25T07:10:18.014Z,11.83
2019-02-25T07:13:14.939Z,17.57
2019-02-25T07:16:18.710Z,14.40
2019-02-25T07:19:15.002Z,17.83
2019-02-25T07:22:16.073Z,16.00
2019-02-25T07:25:21.730Z,30.07
2019-02-25T07:28:36.753Z,32.50
2019-02-25T07:32:00.587Z,22.93
2019-02-25T07:34:56.907Z,22.47
2019-02-25T07:38:05.302Z,19.13
2019-02-25T07:41:09.199Z,19.17
2019-02-25T07:44:13.079Z,18.67
2019-02-25T07:47:17.079Z,16.37
2019-02-25T07:50:18.702Z,15.20
2019-02-25T07:53:18.019Z,14.23
2019-02-25T07:56:11.654Z,13.83
2019-02-25T07:59:12.201Z,12.00
2019-02-25T08:02:23.019Z,11.83
2019-02-25T08:05:46.584Z,11.67
2019-02-25T08:08:58.267Z,9.10
2019-02-25T08:12:06.579Z,8.50
2019-02-25T08:14:59.167Z,8.10
2019-02-25T08:18:10.363Z,7.97
2019-02-25T08:21:14.715Z,8.33
2019-02-25T08:24:18.675Z,7.33
2019-02-25T08:27:30.747Z,6.53
2019-02-25T08:30:42.100Z,7.07
2019-02-25T08:33:45.982Z,6.70
2019-02-25T08:37:18.063Z,6.27
2019-02-25T08:40:42.027Z,6.60
2019-02-25T08:43:35.221Z,6.10
2019-02-25T08:46:50.203Z,6.00
2019-02-25T08:50:01.768Z,6.30
2019-02-25T08:52:48.202Z,5.33
2019-02-25T08:55:37.661Z,5.20
2019-02-25T08:58:24.373Z,7.10
2019-02-25T09:01:10.420Z,4.73
2019-02-25T09:03:56.563Z,5.27
2019-02-25T09:06:42.519Z,5.50
2019-02-25T09:09:28.295Z,5.60
2019-02-25T09:12:14.690Z,5.87
2019-02-25T09:15:00.909Z,5.90
2019-02-25T09:17:47.794Z,6.80
2019-02-25T09:20:33.803Z,6.60
2019-02-25T09:23:19.774Z,6.30
2019-02-25T09:26:05.663Z,8.07
2019-02-25T09:28:52.283Z,8.40
2019-02-25T09:31:38.348Z,7.30
2019-02-25T09:34:25.077Z,8.73
2019-02-25T09:37:11.737Z,7.23
2019-02-25T09:39:57.291Z,9.10
2019-02-25T09:42:43.240Z,8.70
2019-02-25T09:45:30.463Z,8.63
2019-02-25T09:48:16.451Z,9.10
2019-02-25T09:51:02.715Z,7.83
2019-02-25T09:53:51.639Z,8.80
2019-02-25T09:59:29.223Z,8.33
2019-02-25T10:02:15.503Z,8.27
2019-02-25T10:05:01.396Z,8.27
2019-02-25T10:07:47.318Z,8.73
2019-02-25T10:10:33.416Z,9.37
2019-02-25T10:13:19.255Z,8.93
2019-02-25T10:16:05.099Z,7.83
2019-02-25T10:18:51.305Z,8.83
2019-02-25T10:21:37.340Z,7.93
2019-02-25T10:24:26.127Z,8.93
2019-02-25T10:27:12.792Z,8.30
2019-02-25T10:29:58.623Z,8.73
2019-02-25T10:32:44.592Z,9.73
2019-02-25T10:35:30.857Z,10.07
2019-02-25T10:38:16.652Z,9.47
2019-02-25T10:41:02.559Z,9.10
2019-02-25T10:43:49.995Z,8.83
2019-02-25T10:46:35.846Z,9.10
2019-02-25T10:49:22.562Z,9.37
2019-02-25T10:52:10.829Z,8.40
2019-02-25T10:54:58.283Z,9.10
2019-02-25T10:57:43.980Z,8.80
2019-02-25T11:00:30.338Z,9.33
2019-02-25T11:03:17.847Z,9.07
2019-02-25T11:06:04.391Z,9.90
2019-02-25T11:08:57.004Z,9.43
2019-02-25T11:11:42.786Z,10.27
2019-02-25T11:14:28.949Z,8.80
2019-02-25T11:17:16.158Z,9.90
2019-02-25T11:20:03.724Z,9.47
2019-02-25T11:22:50.000Z,9.93
2019-02-25T11:25:35.746Z,9.80
2019-02-25T11:28:25.365Z,10.20
2019-02-25T11:31:09.344Z,10.07
2019-02-25T11:33:56.446Z,11.27
2019-02-25T11:36:43.306Z,10.97
2019-02-25T11:39:30.118Z,11.63
2019-02-25T11:42:20.265Z,10.73
2019-02-25T11:45:05.765Z,10.77
2019-02-25T11:47:51.612Z,10.93
2019-02-25T11:50:37.533Z,10.90
2019-02-25T11:53:24.546Z,11.57
2019-02-25T11:56:10.760Z,9.83
2019-02-25T11:58:56.629Z,7.07
2019-02-25T12:01:42.201Z,7.03
2019-02-25T12:04:28.072Z,5.80
2019-02-25T12:07:13.960Z,5.70
2019-02-25T12:10:00.348Z,5.93
2019-02-25T12:12:45.939Z,5.90
2019-02-25T12:15:31.723Z,6.33
2019-02-25T12:18:17.756Z,5.70
2019-02-25T12:21:03.920Z,5.00
2019-02-25T12:23:49.672Z,3.87
2019-02-25T12:26:35.879Z,4.40
2019-02-25T12:29:21.839Z,3.97
2019-02-25T12:32:07.741Z,4.00
2019-02-25T12:34:53.649Z,4.80
2019-02-25T12:37:39.094Z,5.43
2019-02-25T12:40:24.543Z,4.90
2019-02-25T12:43:10.164Z,5.20
2019-02-25T12:45:56.084Z,5.17
2019-02-25T12:48:41.633Z,5.50
2019-02-25T12:51:27.343Z,5.30
2019-02-25T12:54:13.125Z,4.83
2019-02-25T12:56:59.304Z,5.30
2019-02-25T12:59:44.705Z,5.30
2019-02-25T13:02:30.105Z,3.57
2019-02-25T13:05:16.324Z,4.20
2019-02-25T13:08:01.870Z,3.90
2019-02-25T13:10:47.242Z,4.30
2019-02-25T13:13:32.965Z,3.60
2019-02-25T13:16:18.239Z,3.77
2019-02-25T13:19:03.581Z,3.80
2019-02-25T13:21:49.802Z,3.70
2019-02-25T13:24:37.263Z,3.93
2019-02-25T13:27:22.921Z,3.53
2019-02-25T13:30:11.554Z,3.13
2019-02-25T13:32:56.853Z,3.50
2019-02-25T13:35:42.265Z,3.60
2019-02-25T13:38:27.876Z,3.17
2019-02-25T13:41:13.499Z,3.60
2019-02-25T13:43:58.945Z,4.27
2019-02-25T13:46:44.823Z,3.37
2019-02-25T13:49:30.693Z,3.80
2019-02-25T13:52:16.089Z,4.27
2019-02-25T13:55:01.771Z,4.00
2019-02-25T13:57:47.275Z,4.30
2019-02-25T14:00:32.658Z,4.30
2019-02-25T14:03:18.550Z,4.10
2019-02-25T14:06:03.842Z,4.10
2019-02-25T14:08:49.252Z,3.97
2019-02-25T14:11:35.539Z,5.20
2019-02-25T14:14:21.090Z,4.50
2019-02-25T14:17:09.025Z,4.10
2019-02-25T14:19:54.879Z,3.80
2019-02-25T14:22:40.248Z,4.40
2019-02-25T14:25:28.414Z,4.90
2019-02-25T14:28:14.568Z,5.17
2019-02-25T14:30:59.998Z,5.80
2019-02-25T14:33:45.962Z,4.83
2019-02-25T14:36:31.534Z,6.13
2019-02-25T14:39:24.968Z,5.70
2019-02-25T14:42:11.915Z,5.77
2019-02-25T14:44:58.576Z,5.30
2019-02-25T14:47:46.720Z,5.03
2019-02-25T14:50:32.092Z,5.07
2019-02-25T14:53:17.612Z,5.07
2019-02-25T14:56:04.173Z,4.77
2019-02-25T14:58:49.790Z,5.00
2019-02-25T15:01:35.279Z,4.43
2019-02-25T15:04:20.862Z,4.40
2019-02-25T15:07:09.135Z,4.57
2019-02-25T15:09:57.938Z,4.67
2019-02-25T15:12:43.551Z,5.50
2019-02-25T15:15:31.493Z,5.47
2019-02-25T15:18:17.258Z,5.20
2019-02-25T15:21:04.737Z,5.50
2019-02-25T15:23:51.978Z,5.50
2019-02-25T15:26:42.998Z,6.27
2019-02-25T15:29:25.210Z,5.97
2019-02-25T15:32:10.502Z,5.40
2019-02-25T15:34:57.255Z,5.60
2019-02-25T15:37:44.889Z,5.63
2019-02-25T15:40:32.939Z,5.57
2019-02-25T15:43:21.286Z,5.40
2019-02-25T15:46:07.168Z,6.00
2019-02-25T15:48:52.642Z,5.97
2019-02-25T15:51:41.119Z,6.50
2019-02-25T15:54:30.878Z,6.33
2019-02-25T15:57:15.120Z,7.00
2019-02-25T16:00:00.724Z,7.93
2019-02-25T16:02:48.548Z,7.60
2019-02-25T16:05:34.764Z,8.03
2019-02-25T16:08:23.583Z,7.97
2019-02-25T16:11:09.862Z,8.07
2019-02-25T16:13:56.230Z,7.53
2019-02-25T16:16:43.342Z,8.57
2019-02-25T16:19:40.556Z,8.63
2019-02-25T16:22:16.682Z,8.70
2019-02-25T16:25:03.017Z,9.20
2019-02-25T16:27:54.281Z,9.63
2019-02-25T16:30:41.762Z,8.10
2019-02-25T16:33:28.307Z,7.70
2019-02-25T16:36:14.888Z,8.80
2019-02-25T16:39:05.241Z,8.37
2019-02-25T16:41:47.900Z,7.83
2019-02-25T16:44:33.807Z,8.17
2019-02-25T16:47:32.004Z,8.60
2019-02-25T16:50:07.505Z,7.47
2019-02-25T16:52:53.402Z,7.80
2019-02-25T16:55:40.516Z,8.37
2019-02-25T16:58:27.593Z,9.03
2019-02-25T17:01:14.118Z,8.80
2019-02-25T17:03:59.770Z,9.63
2019-02-25T17:06:45.467Z,10.63
2019-02-25T17:09:32.038Z,10.50
2019-02-25T17:12:21.089Z,11.23
2019-02-25T17:15:09.976Z,9.90
2019-02-25T17:17:58.314Z,10.47
2019-02-25T17:20:45.096Z,12.27
2019-02-25T17:23:32.311Z,10.90
2019-02-25T17:26:19.633Z,11.70
2019-02-25T17:29:05.379Z,10.93
2019-02-25T17:31:52.724Z,10.50
2019-02-25T17:34:39.390Z,10.07
2019-02-25T17:37:26.702Z,11.97
2019-02-25T17:40:13.358Z,10.87
2019-02-25T17:42:58.855Z,12.83
2019-02-25T17:45:44.838Z,11.03
2019-02-25T17:48:31.177Z,11.80
2019-02-25T17:51:18.451Z,12.30
2019-02-25T17:54:05.811Z,11.70
2019-02-25T17:56:52.002Z,10.80
2019-02-25T17:59:39.193Z,11.37
2019-02-25T18:02:29.197Z,11.73
2019-02-25T18:05:16.894Z,11.63
2019-02-25T18:08:05.328Z,12.83
2019-02-25T18:10:52.258Z,12.00
2019-02-25T18:13:39.607Z,11.50
2019-02-25T18:16:24.990Z,11.70
2019-02-25T18:19:11.708Z,11.63
2019-02-25T18:21:58.931Z,13.43
2019-02-25T18:24:44.424Z,13.80
2019-02-25T18:27:29.855Z,13.07
2019-02-25T18:30:17.135Z,13.10
2019-02-25T18:33:05.159Z,13.00
2019-02-25T18:35:50.387Z,12.50
2019-02-25T18:38:35.998Z,13.67
2019-02-25T18:41:23.171Z,13.90
2019-02-25T18:44:10.884Z,14.67
2019-02-25T18:46:56.907Z,14.23
2019-02-25T18:49:42.614Z,16.20
2019-02-25T18:52:29.561Z,20.90
2019-02-25T18:55:17.147Z,27.80
2019-02-25T18:58:05.065Z,28.50
2019-02-25T19:00:52.196Z,20.53
2019-02-25T19:03:38.650Z,29.10
2019-02-25T19:06:25.623Z,19.27
2019-02-25T19:09:22.775Z,21.67
2019-02-25T19:12:10.687Z,22.33
2019-02-25T19:14:57.679Z,26.60
2019-02-25T19:17:45.754Z,26.50
2019-02-25T19:20:31.900Z,20.30
2019-02-25T19:23:17.582Z,25.23
2019-02-25T19:26:03.220Z,22.27
2019-02-25T19:28:50.195Z,19.43
2019-02-25T19:31:36.936Z,23.33
2019-02-25T19:34:23.241Z,28.73
2019-02-25T19:37:12.046Z,23.17
2019-02-25T19:39:57.559Z,19.00
2019-02-25T19:42:47.302Z,18.60
2019-02-25T19:45:30.766Z,19.23
2019-02-25T19:48:19.242Z,18.83
2019-02-25T19:51:06.234Z,21.33
2019-02-25T19:53:51.896Z,20.63
2019-02-25T19:56:37.751Z,22.47
2019-02-25T19:59:26.853Z,20.93
2019-02-25T20:02:13.881Z,21.20
2019-02-25T20:05:00.667Z,23.43
2019-02-25T20:07:47.586Z,23.53
2019-02-25T20:10:34.133Z,24.20
2019-02-25T20:13:22.303Z,22.33
2019-02-25T20:16:20.409Z,21.70
2019-02-25T20:19:06.799Z,21.37
2019-02-25T20:21:54.613Z,23.33
2019-02-25T20:24:44.144Z,23.00
2019-02-25T20:27:30.229Z,23.13
2019-02-25T20:30:16.381Z,20.50
2019-02-25T20:33:03.319Z,21.80
2019-02-25T20:35:53.062Z,21.07
2019-02-25T20:38:37.754Z,24.33
2019-02-25T20:41:27.130Z,24.90
2019-02-25T20:44:14.453Z,22.97
2019-02-25T20:47:01.957Z,27.00
2019-02-25T20:49:51.509Z,27.67
2019-02-25T20:52:40.419Z,25.10
2019-02-25T20:55:27.673Z,26.00
2019-02-25T20:58:16.217Z,28.67
2019-02-25T21:01:05.272Z,25.73
2019-02-25T21:03:51.055Z,27.03
2019-02-25T21:06:39.180Z,24.90
2019-02-25T21:09:25.587Z,25.30
2019-02-25T21:12:13.244Z,24.80
2019-02-25T21:14:59.126Z,24.53
2019-02-25T21:17:45.288Z,25.57
2019-02-25T21:20:31.489Z,26.43
2019-02-25T21:23:17.317Z,23.73
2019-02-25T21:26:06.305Z,24.07
2019-02-25T21:28:56.055Z,21.97
2019-02-25T21:31:43.137Z,23.03
2019-02-25T21:34:29.170Z,23.40
2019-02-25T21:37:15.594Z,24.20
2019-02-25T21:40:03.388Z,23.50
2019-02-25T21:42:51.254Z,22.47
2019-02-25T21:45:36.340Z,23.73
2019-02-25T21:48:25.064Z,24.10
2019-02-25T21:51:11.868Z,22.30
2019-02-25T21:53:58.092Z,22.43
2019-02-25T21:56:44.747Z,23.33
2019-02-25T21:59:32.232Z,23.33
2019-02-25T22:02:17.683Z,22.27
2019-02-25T22:05:07.917Z,23.63
2019-02-25T22:07:54.492Z,23.20
2019-02-25T22:10:42.042Z,20.87
2019-02-25T22:13:27.906Z,19.63
2019-02-25T22:16:13.563Z,22.07
2019-02-25T22:18:58.930Z,20.73
2019-02-25T22:21:45.138Z,20.50
2019-02-25T22:24:32.081Z,20.93
2019-02-25T22:27:18.910Z,20.70
2019-02-25T22:30:09.187Z,21.07
2019-02-25T22:32:55.124Z,18.70
2019-02-25T22:35:42.482Z,19.90
2019-02-25T22:38:28.243Z,20.23
2019-02-25T22:41:13.715Z,20.17
2019-02-25T22:43:59.967Z,20.77
2019-02-25T22:46:46.783Z,20.27
2019-02-25T22:49:32.555Z,20.03
2019-02-25T22:52:21.895Z,18.73
2019-02-25T22:55:09.865Z,17.77
2019-02-25T22:57:54.242Z,20.57
2019-02-25T23:00:51.570Z,19.87
2019-02-25T23:03:40.970Z,19.93
2019-02-25T23:06:25.477Z,19.27
2019-02-25T23:09:14.145Z,18.80
2019-02-25T23:11:59.746Z,18.20
2019-02-25T23:14:45.162Z,17.13
2019-02-25T23:17:33.060Z,18.33
2019-02-25T23:20:18.217Z,19.20
2019-02-25T23:23:06.519Z,19.27
2019-02-25T23:25:53.262Z,18.97
2019-02-25T23:28:38.987Z,19.63
2019-02-25T23:31:24.848Z,18.27
2019-02-25T23:34:12.672Z,18.50
2019-02-25T23:36:57.931Z,19.17
2019-02-25T23:39:44.846Z,20.30
2019-02-25T23:42:33.000Z,19.53
2019-02-25T23:45:20.476Z,21.13
2019-02-25T23:48:06.338Z,21.10
2019-02-25T23:50:54.956Z,18.17
2019-02-25T23:53:40.502Z,20.27
2019-02-25T23:56:27.429Z,18.57
2019-02-25T23:59:14.817Z,18.33
